Portada
METAR-TAF:

METAR-TAF

Aeroports :

Seül Seongnam, Corea del Sud

latitud: 37-26N, longitud: 127-07E, altitud: 20 m

Observació

L'informe es va fer fa 1 hora i 1 minuts, a les 22:00 UTC
Vent 7 kt del Nord-Oest
Temperatura -1°C
Humitat 26%
Pressió 1027 hPa
Visibilitat 10 km o més
Cel clar

METAR: RKSM 132200Z 32007KT 9999 SKC M01/M18 A3032

Hora: 08:01 (23:01 UTC)

Pronòstic

L'informe es va fer fa 6 hores i 1 minuts, a les 17:00 UTC
Pronòstic vàlid del 13 a les 18 UTC al 14 a les 24 UTC
Vent 10 kt del Nord/Nord-Oest
Visibilitat 10 km o més
Núvols disperses a una alçada de 4000 ft

TAF: RKSM 131700Z 1318/1424 33010KT 9999 SCT040 TNM03/1321Z TX04/1406Z

Observacions i pronòstics meteorològics de més de 4000 aeroports (METAR i TAF).

Les estacions disponibles són els punts grocs i vermells al mapa.

Posi el ratolí al punt desitjat per veure el nom de l'estació.

Feu clic per veure les observacions i els pronòstics meteorològics.

Per canviar el mapa: feu clic els botons verds amb una creu de color negre per apropar; al botó verd amb un guió per allunyar la imatge; o en les fletxes verdes per a mapes adjacents.


METAR-TAF: